sensor_id;sensor_type;location;lat;lon;timestamp;P1;durP1;ratioP1;P2;durP2;ratioP2
78985;SDS011;68384;55.750;48.746;2023-05-10T00:00:16;3.55;;;2.00;;
78985;SDS011;68384;55.750;48.746;2023-05-10T00:01:20;4.28;;;1.77;;
78985;SDS011;68384;55.750;48.746;2023-05-10T00:02:23;3.13;;;1.90;;
78985;SDS011;68384;55.750;48.746;2023-05-10T00:03:27;4.85;;;2.30;;
78985;SDS011;68384;55.750;48.746;2023-05-10T00:04:30;4.07;;;1.85;;
78985;SDS011;68384;55.750;48.746;2023-05-10T00:05:34;5.25;;;2.20;;
78985;SDS011;68384;55.750;48.746;2023-05-10T00:06:37;2.42;;;1.75;;
78985;SDS011;68384;55.750;48.746;2023-05-10T00:07:41;3.25;;;2.08;;
78985;SDS011;68384;55.750;48.746;2023-05-10T00:08:46;4.07;;;1.92;;
78985;SDS011;68384;55.750;48.746;2023-05-10T00:09:50;2.70;;;1.85;;
78985;SDS011;68384;55.750;48.746;2023-05-10T00:10:53;3.47;;;2.03;;
78985;SDS011;68384;55.750;48.746;2023-05-10T00:11:57;4.13;;;1.98;;
78985;SDS011;68384;55.750;48.746;2023-05-10T00:13:00;3.53;;;2.05;;
78985;SDS011;68384;55.750;48.746;2023-05-10T00:14:05;4.00;;;1.88;;
78985;SDS011;68384;55.750;48.746;2023-05-10T00:15:09;4.53;;;2.25;;
78985;SDS011;68384;55.750;48.746;2023-05-10T00:16:14;4.97;;;2.20;;
78985;SDS011;68384;55.750;48.746;2023-05-10T00:17:17;4.10;;;1.90;;
78985;SDS011;68384;55.750;48.746;2023-05-10T00:20:26;3.92;;;1.70;;
78985;SDS011;68384;55.750;48.746;2023-05-10T00:21:29;6.00;;;2.28;;
78985;SDS011;68384;55.750;48.746;2023-05-10T00:22:34;4.30;;;2.10;;
78985;SDS011;68384;55.750;48.746;2023-05-10T00:23:37;5.40;;;2.97;;
78985;SDS011;68384;55.750;48.746;2023-05-10T00:24:41;4.07;;;2.63;;
78985;SDS011;68384;55.750;48.746;2023-05-10T00:25:43;7.28;;;2.63;;
78985;SDS011;68384;55.750;48.746;2023-05-10T00:26:47;4.70;;;2.97;;
78985;SDS011;68384;55.750;48.746;2023-05-10T00:27:50;5.10;;;3.30;;
78985;SDS011;68384;55.750;48.746;2023-05-10T00:28:57;4.50;;;3.13;;
78985;SDS011;68384;55.750;48.746;2023-05-10T00:30:00;4.32;;;2.80;;
78985;SDS011;68384;55.750;48.746;2023-05-10T00:31:07;5.20;;;3.08;;
78985;SDS011;68384;55.750;48.746;2023-05-10T00:32:11;6.22;;;3.40;;
78985;SDS011;68384;55.750;48.746;2023-05-10T00:33:17;6.88;;;3.83;;
78985;SDS011;68384;55.750;48.746;2023-05-10T00:34:22;10.55;;;3.15;;
78985;SDS011;68384;55.750;48.746;2023-05-10T00:35:24;6.57;;;3.67;;
78985;SDS011;68384;55.750;48.746;2023-05-10T00:36:28;7.43;;;3.35;;
78985;SDS011;68384;55.750;48.746;2023-05-10T00:37:31;6.97;;;3.65;;
78985;SDS011;68384;55.750;48.746;2023-05-10T00:38:35;6.20;;;3.03;;
78985;SDS011;68384;55.750;48.746;2023-05-10T00:39:38;5.00;;;2.92;;
78985;SDS011;68384;55.750;48.746;2023-05-10T00:41:52;8.80;;;3.10;;
78985;SDS011;68384;55.750;48.746;2023-05-10T00:42:56;4.15;;;2.63;;
78985;SDS011;68384;55.750;48.746;2023-05-10T00:44:00;5.97;;;2.92;;
78985;SDS011;68384;55.750;48.746;2023-05-10T00:45:04;5.30;;;2.75;;
78985;SDS011;68384;55.750;48.746;2023-05-10T00:46:09;6.18;;;2.63;;
78985;SDS011;68384;55.750;48.746;2023-05-10T00:47:14;5.05;;;2.88;;
78985;SDS011;68384;55.750;48.746;2023-05-10T00:48:17;5.18;;;3.00;;
78985;SDS011;68384;55.750;48.746;2023-05-10T00:49:22;6.13;;;3.10;;
78985;SDS011;68384;55.750;48.746;2023-05-10T00:50:25;6.32;;;2.97;;
78985;SDS011;68384;55.750;48.746;2023-05-10T00:51:29;4.45;;;2.92;;
78985;SDS011;68384;55.750;48.746;2023-05-10T00:52:33;4.10;;;2.55;;
78985;SDS011;68384;55.750;48.746;2023-05-10T00:53:37;3.75;;;2.53;;
78985;SDS011;68384;55.750;48.746;2023-05-10T00:54:40;8.50;;;2.25;;
78985;SDS011;68384;55.750;48.746;2023-05-10T00:55:45;4.05;;;2.50;;
78985;SDS011;68384;55.750;48.746;2023-05-10T00:56:47;3.65;;;2.58;;
78985;SDS011;68384;55.750;48.746;2023-05-10T00:57:52;7.15;;;2.90;;
78985;SDS011;68384;55.750;48.746;2023-05-10T00:58:55;4.20;;;2.38;;
78985;SDS011;68384;55.750;48.746;2023-05-10T00:59:59;7.47;;;2.78;;
78985;SDS011;68384;55.750;48.746;2023-05-10T01:01:04;19.20;;;9.13;;
78985;SDS011;68384;55.750;48.746;2023-05-10T01:02:10;19.48;;;9.02;;
78985;SDS011;68384;55.750;48.746;2023-05-10T01:03:15;50.47;;;24.92;;
78985;SDS011;68384;55.750;48.746;2023-05-10T01:04:19;45.30;;;22.20;;
78985;SDS011;68384;55.750;48.746;2023-05-10T01:05:27;151.02;;;65.95;;
78985;SDS011;68384;55.750;48.746;2023-05-10T01:06:32;39.63;;;19.60;;
78985;SDS011;68384;55.750;48.746;2023-05-10T01:07:34;50.92;;;22.92;;
78985;SDS011;68384;55.750;48.746;2023-05-10T01:08:38;20.63;;;9.10;;
78985;SDS011;68384;55.750;48.746;2023-05-10T01:09:41;16.80;;;7.18;;
78985;SDS011;68384;55.750;48.746;2023-05-10T01:10:46;10.20;;;4.50;;
78985;SDS011;68384;55.750;48.746;2023-05-10T01:11:50;6.22;;;2.72;;
78985;SDS011;68384;55.750;48.746;2023-05-10T01:12:55;6.50;;;2.60;;
78985;SDS011;68384;55.750;48.746;2023-05-10T01:13:58;6.97;;;3.08;;
78985;SDS011;68384;55.750;48.746;2023-05-10T01:15:03;3.85;;;2.55;;
78985;SDS011;68384;55.750;48.746;2023-05-10T01:16:07;3.88;;;2.75;;
78985;SDS011;68384;55.750;48.746;2023-05-10T01:17:14;3.03;;;2.13;;
78985;SDS011;68384;55.750;48.746;2023-05-10T01:18:17;5.10;;;2.33;;
78985;SDS011;68384;55.750;48.746;2023-05-10T01:19:25;6.72;;;2.70;;
78985;SDS011;68384;55.750;48.746;2023-05-10T01:20:31;4.35;;;2.60;;
78985;SDS011;68384;55.750;48.746;2023-05-10T01:21:43;2.72;;;1.90;;
78985;SDS011;68384;55.750;48.746;2023-05-10T01:24:37;3.20;;;1.80;;
78985;SDS011;68384;55.750;48.746;2023-05-10T01:27:38;2.45;;;1.77;;
78985;SDS011;68384;55.750;48.746;2023-05-10T01:30:46;2.67;;;1.80;;
78985;SDS011;68384;55.750;48.746;2023-05-10T01:32:13;3.20;;;1.80;;
78985;SDS011;68384;55.750;48.746;2023-05-10T01:34:34;3.33;;;1.77;;
78985;SDS011;68384;55.750;48.746;2023-05-10T01:36:51;2.88;;;1.50;;
78985;SDS011;68384;55.750;48.746;2023-05-10T01:38:04;3.05;;;2.00;;
78985;SDS011;68384;55.750;48.746;2023-05-10T01:39:15;2.78;;;1.70;;
78985;SDS011;68384;55.750;48.746;2023-05-10T01:40:29;2.88;;;1.70;;
78985;SDS011;68384;55.750;48.746;2023-05-10T01:41:38;4.03;;;1.80;;
78985;SDS011;68384;55.750;48.746;2023-05-10T01:42:49;2.47;;;1.70;;
78985;SDS011;68384;55.750;48.746;2023-05-10T01:43:57;2.78;;;1.73;;
78985;SDS011;68384;55.750;48.746;2023-05-10T01:45:07;3.85;;;1.77;;
78985;SDS011;68384;55.750;48.746;2023-05-10T01:46:17;3.45;;;1.92;;
78985;SDS011;68384;55.750;48.746;2023-05-10T01:47:30;3.08;;;1.83;;
78985;SDS011;68384;55.750;48.746;2023-05-10T01:48:37;3.80;;;2.13;;
78985;SDS011;68384;55.750;48.746;2023-05-10T01:49:49;2.83;;;1.90;;
78985;SDS011;68384;55.750;48.746;2023-05-10T01:50:54;3.17;;;1.60;;
78985;SDS011;68384;55.750;48.746;2023-05-10T01:52:03;3.05;;;1.80;;
78985;SDS011;68384;55.750;48.746;2023-05-10T01:53:09;2.72;;;1.40;;
78985;SDS011;68384;55.750;48.746;2023-05-10T01:54:16;5.03;;;1.92;;
78985;SDS011;68384;55.750;48.746;2023-05-10T01:55:21;3.05;;;1.80;;
78985;SDS011;68384;55.750;48.746;2023-05-10T01:56:30;2.60;;;1.80;;
78985;SDS011;68384;55.750;48.746;2023-05-10T01:57:35;2.78;;;1.80;;
78985;SDS011;68384;55.750;48.746;2023-05-10T01:58:42;3.50;;;1.77;;
78985;SDS011;68384;55.750;48.746;2023-05-10T01:59:47;3.22;;;1.60;;
78985;SDS011;68384;55.750;48.746;2023-05-10T02:00:54;6.97;;;1.80;;
78985;SDS011;68384;55.750;48.746;2023-05-10T02:03:04;2.55;;;1.52;;
78985;SDS011;68384;55.750;48.746;2023-05-10T02:04:09;2.33;;;1.60;;
78985;SDS011;68384;55.750;48.746;2023-05-10T02:05:15;3.92;;;1.80;;
78985;SDS011;68384;55.750;48.746;2023-05-10T02:06:19;2.65;;;1.70;;
78985;SDS011;68384;55.750;48.746;2023-05-10T02:07:26;3.63;;;1.80;;
78985;SDS011;68384;55.750;48.746;2023-05-10T02:08:30;5.88;;;1.60;;
78985;SDS011;68384;55.750;48.746;2023-05-10T02:09:39;2.97;;;1.92;;
78985;SDS011;68384;55.750;48.746;2023-05-10T02:10:43;6.30;;;1.90;;
78985;SDS011;68384;55.750;48.746;2023-05-10T02:11:49;2.72;;;1.75;;
78985;SDS011;68384;55.750;48.746;2023-05-10T02:12:52;5.28;;;2.00;;
78985;SDS011;68384;55.750;48.746;2023-05-10T02:13:58;3.17;;;1.83;;
78985;SDS011;68384;55.750;48.746;2023-05-10T02:15:04;2.72;;;1.73;;
78985;SDS011;68384;55.750;48.746;2023-05-10T02:16:10;2.90;;;1.70;;
78985;SDS011;68384;55.750;48.746;2023-05-10T02:17:15;3.65;;;1.73;;
78985;SDS011;68384;55.750;48.746;2023-05-10T02:18:21;4.00;;;2.17;;
78985;SDS011;68384;55.750;48.746;2023-05-10T02:19:26;5.65;;;1.85;;
78985;SDS011;68384;55.750;48.746;2023-05-10T02:20:33;3.10;;;1.60;;
78985;SDS011;68384;55.750;48.746;2023-05-10T02:21:37;3.50;;;1.60;;
78985;SDS011;68384;55.750;48.746;2023-05-10T02:22:42;3.85;;;2.20;;
78985;SDS011;68384;55.750;48.746;2023-05-10T02:23:48;4.30;;;1.70;;
78985;SDS011;68384;55.750;48.746;2023-05-10T02:24:54;4.88;;;1.77;;
78985;SDS011;68384;55.750;48.746;2023-05-10T02:27:03;4.22;;;1.80;;
78985;SDS011;68384;55.750;48.746;2023-05-10T02:28:09;2.72;;;1.52;;
78985;SDS011;68384;55.750;48.746;2023-05-10T02:29:15;3.25;;;1.92;;
78985;SDS011;68384;55.750;48.746;2023-05-10T02:30:19;4.70;;;1.88;;
78985;SDS011;68384;55.750;48.746;2023-05-10T02:31:24;2.47;;;1.65;;
78985;SDS011;68384;55.750;48.746;2023-05-10T02:32:28;5.45;;;1.50;;
78985;SDS011;68384;55.750;48.746;2023-05-10T02:33:34;3.20;;;1.90;;
78985;SDS011;68384;55.750;48.746;2023-05-10T02:34:38;2.95;;;1.70;;
78985;SDS011;68384;55.750;48.746;2023-05-10T02:35:42;4.07;;;1.75;;
78985;SDS011;68384;55.750;48.746;2023-05-10T02:36:46;2.88;;;1.70;;
78985;SDS011;68384;55.750;48.746;2023-05-10T02:37:50;2.53;;;1.67;;
78985;SDS011;68384;55.750;48.746;2023-05-10T02:38:53;3.00;;;1.50;;
78985;SDS011;68384;55.750;48.746;2023-05-10T02:39:57;3.40;;;1.70;;
78985;SDS011;68384;55.750;48.746;2023-05-10T02:41:01;4.60;;;1.83;;
78985;SDS011;68384;55.750;48.746;2023-05-10T02:42:06;4.57;;;1.80;;
78985;SDS011;68384;55.750;48.746;2023-05-10T02:43:11;3.65;;;1.88;;
78985;SDS011;68384;55.750;48.746;2023-05-10T02:44:17;4.18;;;1.98;;
78985;SDS011;68384;55.750;48.746;2023-05-10T02:45:23;3.65;;;1.77;;
78985;SDS011;68384;55.750;48.746;2023-05-10T02:46:31;2.40;;;1.55;;
78985;SDS011;68384;55.750;48.746;2023-05-10T02:47:34;2.15;;;1.35;;
78985;SDS011;68384;55.750;48.746;2023-05-10T02:48:40;4.28;;;1.63;;
78985;SDS011;68384;55.750;48.746;2023-05-10T02:49:43;4.15;;;1.67;;
78985;SDS011;68384;55.750;48.746;2023-05-10T02:50:47;2.03;;;1.42;;
78985;SDS011;68384;55.750;48.746;2023-05-10T02:51:55;3.25;;;1.48;;
78985;SDS011;68384;55.750;48.746;2023-05-10T02:53:03;5.93;;;1.80;;
78985;SDS011;68384;55.750;48.746;2023-05-10T02:54:12;6.35;;;1.85;;
78985;SDS011;68384;55.750;48.746;2023-05-10T02:55:22;4.38;;;1.58;;
78985;SDS011;68384;55.750;48.746;2023-05-10T02:56:35;1.98;;;1.40;;
78985;SDS011;68384;55.750;48.746;2023-05-10T02:57:46;3.42;;;1.52;;
78985;SDS011;68384;55.750;48.746;2023-05-10T02:59:00;3.10;;;1.70;;
78985;SDS011;68384;55.750;48.746;2023-05-10T03:00:05;2.83;;;2.30;;
78985;SDS011;68384;55.750;48.746;2023-05-10T03:01:09;2.53;;;1.80;;
78985;SDS011;68384;55.750;48.746;2023-05-10T03:02:13;3.53;;;1.80;;
78985;SDS011;68384;55.750;48.746;2023-05-10T03:03:16;3.35;;;1.80;;
78985;SDS011;68384;55.750;48.746;2023-05-10T03:04:23;4.28;;;1.80;;
78985;SDS011;68384;55.750;48.746;2023-05-10T03:05:29;2.47;;;1.70;;
78985;SDS011;68384;55.750;48.746;2023-05-10T03:06:35;2.90;;;1.80;;
78985;SDS011;68384;55.750;48.746;2023-05-10T03:07:39;2.47;;;1.63;;
78985;SDS011;68384;55.750;48.746;2023-05-10T03:08:42;2.92;;;1.70;;
78985;SDS011;68384;55.750;48.746;2023-05-10T03:09:47;3.15;;;1.90;;
78985;SDS011;68384;55.750;48.746;2023-05-10T03:10:54;3.22;;;2.15;;
78985;SDS011;68384;55.750;48.746;2023-05-10T03:12:09;3.60;;;1.88;;
78985;SDS011;68384;55.750;48.746;2023-05-10T03:13:16;2.88;;;1.98;;
78985;SDS011;68384;55.750;48.746;2023-05-10T03:14:34;3.08;;;1.80;;
78985;SDS011;68384;55.750;48.746;2023-05-10T03:15:51;5.45;;;1.70;;
78985;SDS011;68384;55.750;48.746;2023-05-10T03:17:04;4.70;;;1.90;;
78985;SDS011;68384;55.750;48.746;2023-05-10T03:18:15;2.97;;;1.92;;
78985;SDS011;68384;55.750;48.746;2023-05-10T03:20:31;3.53;;;1.98;;
78985;SDS011;68384;55.750;48.746;2023-05-10T03:21:38;3.35;;;1.67;;
78985;SDS011;68384;55.750;48.746;2023-05-10T03:22:49;11.00;;;2.00;;
78985;SDS011;68384;55.750;48.746;2023-05-10T03:23:57;2.70;;;1.70;;
78985;SDS011;68384;55.750;48.746;2023-05-10T03:25:04;2.47;;;1.55;;
78985;SDS011;68384;55.750;48.746;2023-05-10T03:26:12;5.85;;;2.05;;
78985;SDS011;68384;55.750;48.746;2023-05-10T03:27:23;2.92;;;1.80;;
78985;SDS011;68384;55.750;48.746;2023-05-10T03:28:29;3.53;;;2.00;;
78985;SDS011;68384;55.750;48.746;2023-05-10T03:29:35;3.30;;;1.70;;
78985;SDS011;68384;55.750;48.746;2023-05-10T03:30:39;3.85;;;1.80;;
78985;SDS011;68384;55.750;48.746;2023-05-10T03:31:46;4.53;;;1.58;;
78985;SDS011;68384;55.750;48.746;2023-05-10T03:32:49;2.83;;;1.73;;
78985;SDS011;68384;55.750;48.746;2023-05-10T03:33:53;5.95;;;1.60;;
78985;SDS011;68384;55.750;48.746;2023-05-10T03:35:01;2.92;;;1.65;;
78985;SDS011;68384;55.750;48.746;2023-05-10T03:36:11;2.83;;;1.70;;
78985;SDS011;68384;55.750;48.746;2023-05-10T03:37:15;4.22;;;1.90;;
78985;SDS011;68384;55.750;48.746;2023-05-10T03:38:18;2.58;;;1.60;;
78985;SDS011;68384;55.750;48.746;2023-05-10T03:39:22;4.43;;;2.63;;
78985;SDS011;68384;55.750;48.746;2023-05-10T03:40:28;3.13;;;2.00;;
78985;SDS011;68384;55.750;48.746;2023-05-10T03:41:34;2.50;;;1.65;;
78985;SDS011;68384;55.750;48.746;2023-05-10T03:42:37;2.50;;;1.65;;
78985;SDS011;68384;55.750;48.746;2023-05-10T03:43:41;6.90;;;1.80;;
78985;SDS011;68384;55.750;48.746;2023-05-10T03:44:43;4.10;;;2.05;;
78985;SDS011;68384;55.750;48.746;2023-05-10T03:45:47;3.00;;;1.70;;
78985;SDS011;68384;55.750;48.746;2023-05-10T03:46:50;3.00;;;1.88;;
78985;SDS011;68384;55.750;48.746;2023-05-10T03:47:54;3.45;;;1.90;;
78985;SDS011;68384;55.750;48.746;2023-05-10T03:48:57;3.90;;;1.80;;
78985;SDS011;68384;55.750;48.746;2023-05-10T03:50:02;2.53;;;1.70;;
78985;SDS011;68384;55.750;48.746;2023-05-10T03:51:06;3.10;;;1.70;;
78985;SDS011;68384;55.750;48.746;2023-05-10T03:52:11;3.20;;;1.90;;
78985;SDS011;68384;55.750;48.746;2023-05-10T03:53:13;3.35;;;2.13;;
78985;SDS011;68384;55.750;48.746;2023-05-10T03:54:17;2.50;;;1.58;;
78985;SDS011;68384;55.750;48.746;2023-05-10T03:55:20;3.33;;;1.90;;
78985;SDS011;68384;55.750;48.746;2023-05-10T03:56:25;3.10;;;2.00;;
78985;SDS011;68384;55.750;48.746;2023-05-10T03:57:27;3.22;;;1.95;;
78985;SDS011;68384;55.750;48.746;2023-05-10T03:58:32;4.93;;;2.15;;
78985;SDS011;68384;55.750;48.746;2023-05-10T03:59:35;2.70;;;1.80;;
78985;SDS011;68384;55.750;48.746;2023-05-10T04:00:39;3.38;;;1.88;;
78985;SDS011;68384;55.750;48.746;2023-05-10T04:01:47;3.15;;;1.77;;
78985;SDS011;68384;55.750;48.746;2023-05-10T04:02:51;6.70;;;1.90;;
78985;SDS011;68384;55.750;48.746;2023-05-10T04:03:54;2.42;;;1.58;;
78985;SDS011;68384;55.750;48.746;2023-05-10T04:04:58;5.07;;;1.63;;
78985;SDS011;68384;55.750;48.746;2023-05-10T04:06:03;2.55;;;1.50;;
78985;SDS011;68384;55.750;48.746;2023-05-10T04:07:07;5.28;;;1.88;;
78985;SDS011;68384;55.750;48.746;2023-05-10T04:08:12;3.17;;;1.85;;
78985;SDS011;68384;55.750;48.746;2023-05-10T04:09:16;2.67;;;1.50;;
78985;SDS011;68384;55.750;48.746;2023-05-10T04:10:19;3.70;;;1.73;;
78985;SDS011;68384;55.750;48.746;2023-05-10T04:11:23;2.97;;;1.90;;
78985;SDS011;68384;55.750;48.746;2023-05-10T04:12:26;2.30;;;1.50;;
78985;SDS011;68384;55.750;48.746;2023-05-10T04:13:30;6.53;;;1.70;;
78985;SDS011;68384;55.750;48.746;2023-05-10T04:14:33;2.20;;;1.42;;
78985;SDS011;68384;55.750;48.746;2023-05-10T04:16:39;2.63;;;1.45;;
78985;SDS011;68384;55.750;48.746;2023-05-10T04:17:43;8.07;;;2.28;;
78985;SDS011;68384;55.750;48.746;2023-05-10T04:18:46;2.40;;;1.50;;
78985;SDS011;68384;55.750;48.746;2023-05-10T04:19:50;2.95;;;1.50;;
78985;SDS011;68384;55.750;48.746;2023-05-10T04:20:54;4.32;;;1.70;;
78985;SDS011;68384;55.750;48.746;2023-05-10T04:22:00;3.70;;;1.65;;
78985;SDS011;68384;55.750;48.746;2023-05-10T04:23:04;2.50;;;1.48;;
78985;SDS011;68384;55.750;48.746;2023-05-10T04:24:08;3.08;;;1.70;;
78985;SDS011;68384;55.750;48.746;2023-05-10T04:25:11;4.32;;;1.60;;
78985;SDS011;68384;55.750;48.746;2023-05-10T04:26:14;5.20;;;1.73;;
78985;SDS011;68384;55.750;48.746;2023-05-10T04:27:17;2.70;;;1.58;;
78985;SDS011;68384;55.750;48.746;2023-05-10T04:28:21;2.38;;;1.50;;
78985;SDS011;68384;55.750;48.746;2023-05-10T04:30:28;2.92;;;1.58;;
78985;SDS011;68384;55.750;48.746;2023-05-10T04:31:32;4.10;;;1.50;;
78985;SDS011;68384;55.750;48.746;2023-05-10T04:32:35;2.33;;;1.50;;
78985;SDS011;68384;55.750;48.746;2023-05-10T04:33:39;3.75;;;1.50;;
78985;SDS011;68384;55.750;48.746;2023-05-10T04:34:41;2.60;;;1.70;;
78985;SDS011;68384;55.750;48.746;2023-05-10T04:35:45;5.95;;;1.90;;
78985;SDS011;68384;55.750;48.746;2023-05-10T04:36:48;4.60;;;1.55;;
78985;SDS011;68384;55.750;48.746;2023-05-10T04:37:54;3.35;;;1.60;;
78985;SDS011;68384;55.750;48.746;2023-05-10T04:38:56;6.07;;;1.63;;
78985;SDS011;68384;55.750;48.746;2023-05-10T04:40:01;2.90;;;1.58;;
78985;SDS011;68384;55.750;48.746;2023-05-10T04:41:05;2.38;;;1.50;;
78985;SDS011;68384;55.750;48.746;2023-05-10T04:42:10;4.82;;;2.00;;
78985;SDS011;68384;55.750;48.746;2023-05-10T04:43:13;2.53;;;1.90;;
78985;SDS011;68384;55.750;48.746;2023-05-10T04:44:17;2.92;;;1.60;;
78985;SDS011;68384;55.750;48.746;2023-05-10T04:45:20;2.20;;;1.55;;
78985;SDS011;68384;55.750;48.746;2023-05-10T04:46:24;4.95;;;1.50;;
78985;SDS011;68384;55.750;48.746;2023-05-10T04:47:27;3.08;;;1.30;;
78985;SDS011;68384;55.750;48.746;2023-05-10T04:48:31;2.60;;;1.60;;
78985;SDS011;68384;55.750;48.746;2023-05-10T04:49:34;2.20;;;1.50;;
78985;SDS011;68384;55.750;48.746;2023-05-10T04:50:38;2.90;;;1.65;;
78985;SDS011;68384;55.750;48.746;2023-05-10T04:51:42;2.50;;;1.58;;
78985;SDS011;68384;55.750;48.746;2023-05-10T04:52:46;3.65;;;1.60;;
78985;SDS011;68384;55.750;48.746;2023-05-10T04:53:50;3.05;;;1.50;;
78985;SDS011;68384;55.750;48.746;2023-05-10T04:55:07;2.15;;;1.38;;
78985;SDS011;68384;55.750;48.746;2023-05-10T04:56:12;2.72;;;1.45;;
78985;SDS011;68384;55.750;48.746;2023-05-10T04:57:16;3.72;;;1.98;;
78985;SDS011;68384;55.750;48.746;2023-05-10T04:58:18;3.65;;;2.17;;
78985;SDS011;68384;55.750;48.746;2023-05-10T04:59:23;4.15;;;1.67;;
78985;SDS011;68384;55.750;48.746;2023-05-10T05:00:25;2.55;;;1.60;;
78985;SDS011;68384;55.750;48.746;2023-05-10T05:01:29;2.88;;;1.55;;
78985;SDS011;68384;55.750;48.746;2023-05-10T05:02:34;2.25;;;1.40;;
78985;SDS011;68384;55.750;48.746;2023-05-10T05:03:37;5.30;;;1.60;;
78985;SDS011;68384;55.750;48.746;2023-05-10T05:04:41;2.58;;;1.60;;
78985;SDS011;68384;55.750;48.746;2023-05-10T05:05:44;2.60;;;1.40;;
78985;SDS011;68384;55.750;48.746;2023-05-10T05:06:48;2.45;;;1.40;;
78985;SDS011;68384;55.750;48.746;2023-05-10T05:07:54;2.30;;;1.40;;
78985;SDS011;68384;55.750;48.746;2023-05-10T05:08:59;3.28;;;1.48;;
78985;SDS011;68384;55.750;48.746;2023-05-10T05:10:02;2.33;;;1.20;;
78985;SDS011;68384;55.750;48.746;2023-05-10T05:11:07;2.22;;;1.23;;
78985;SDS011;68384;55.750;48.746;2023-05-10T05:12:10;1.90;;;1.27;;
78985;SDS011;68384;55.750;48.746;2023-05-10T05:13:16;2.08;;;1.27;;
78985;SDS011;68384;55.750;48.746;2023-05-10T05:14:19;4.10;;;2.00;;
78985;SDS011;68384;55.750;48.746;2023-05-10T05:15:23;2.00;;;1.20;;
78985;SDS011;68384;55.750;48.746;2023-05-10T05:16:25;3.33;;;1.88;;
78985;SDS011;68384;55.750;48.746;2023-05-10T05:17:30;1.90;;;1.40;;
78985;SDS011;68384;55.750;48.746;2023-05-10T05:18:33;3.08;;;1.20;;
78985;SDS011;68384;55.750;48.746;2023-05-10T05:19:37;2.50;;;1.40;;
78985;SDS011;68384;55.750;48.746;2023-05-10T05:20:40;2.50;;;1.30;;
78985;SDS011;68384;55.750;48.746;2023-05-10T05:21:43;2.65;;;1.30;;
78985;SDS011;68384;55.750;48.746;2023-05-10T05:22:46;2.95;;;1.50;;
78985;SDS011;68384;55.750;48.746;2023-05-10T05:23:50;2.45;;;1.50;;
78985;SDS011;68384;55.750;48.746;2023-05-10T05:24:55;2.53;;;1.40;;
78985;SDS011;68384;55.750;48.746;2023-05-10T05:25:59;2.70;;;1.40;;
78985;SDS011;68384;55.750;48.746;2023-05-10T05:27:03;2.40;;;1.50;;
78985;SDS011;68384;55.750;48.746;2023-05-10T05:28:07;2.67;;;1.65;;
78985;SDS011;68384;55.750;48.746;2023-05-10T05:29:10;2.85;;;1.60;;
78985;SDS011;68384;55.750;48.746;2023-05-10T05:31:17;2.65;;;1.52;;
78985;SDS011;68384;55.750;48.746;2023-05-10T05:32:21;2.78;;;1.27;;
78985;SDS011;68384;55.750;48.746;2023-05-10T05:33:24;3.35;;;1.40;;
78985;SDS011;68384;55.750;48.746;2023-05-10T05:34:28;2.28;;;1.30;;
78985;SDS011;68384;55.750;48.746;2023-05-10T05:35:30;2.70;;;1.30;;
78985;SDS011;68384;55.750;48.746;2023-05-10T05:36:35;1.85;;;1.25;;
78985;SDS011;68384;55.750;48.746;2023-05-10T05:37:40;2.97;;;1.50;;
78985;SDS011;68384;55.750;48.746;2023-05-10T05:38:43;2.22;;;1.20;;
78985;SDS011;68384;55.750;48.746;2023-05-10T05:39:47;1.90;;;1.17;;
78985;SDS011;68384;55.750;48.746;2023-05-10T05:40:51;2.28;;;1.30;;
78985;SDS011;68384;55.750;48.746;2023-05-10T05:41:55;2.63;;;1.27;;
78985;SDS011;68384;55.750;48.746;2023-05-10T05:42:58;2.35;;;1.35;;
78985;SDS011;68384;55.750;48.746;2023-05-10T05:44:01;5.57;;;1.20;;
78985;SDS011;68384;55.750;48.746;2023-05-10T05:45:05;4.13;;;1.27;;
78985;SDS011;68384;55.750;48.746;2023-05-10T05:46:10;2.80;;;1.70;;
78985;SDS011;68384;55.750;48.746;2023-05-10T05:47:14;2.75;;;1.30;;
78985;SDS011;68384;55.750;48.746;2023-05-10T05:48:17;2.08;;;1.40;;
78985;SDS011;68384;55.750;48.746;2023-05-10T05:49:21;2.65;;;1.60;;
78985;SDS011;68384;55.750;48.746;2023-05-10T05:50:24;2.00;;;1.30;;
78985;SDS011;68384;55.750;48.746;2023-05-10T05:51:27;2.60;;;1.48;;
78985;SDS011;68384;55.750;48.746;2023-05-10T05:52:30;3.85;;;1.50;;
78985;SDS011;68384;55.750;48.746;2023-05-10T05:53:34;2.03;;;1.50;;
78985;SDS011;68384;55.750;48.746;2023-05-10T05:54:37;2.70;;;1.40;;
78985;SDS011;68384;55.750;48.746;2023-05-10T05:55:51;2.75;;;1.20;;
78985;SDS011;68384;55.750;48.746;2023-05-10T05:56:55;1.90;;;1.15;;
78985;SDS011;68384;55.750;48.746;2023-05-10T05:58:02;2.30;;;1.25;;
78985;SDS011;68384;55.750;48.746;2023-05-10T05:59:04;2.70;;;1.25;;
78985;SDS011;68384;55.750;48.746;2023-05-10T06:00:09;2.17;;;1.17;;
78985;SDS011;68384;55.750;48.746;2023-05-10T06:01:13;2.30;;;1.30;;
78985;SDS011;68384;55.750;48.746;2023-05-10T06:02:16;2.78;;;1.35;;
78985;SDS011;68384;55.750;48.746;2023-05-10T06:03:20;2.53;;;1.20;;
78985;SDS011;68384;55.750;48.746;2023-05-10T06:04:24;2.53;;;1.23;;
78985;SDS011;68384;55.750;48.746;2023-05-10T06:05:27;2.22;;;1.23;;
78985;SDS011;68384;55.750;48.746;2023-05-10T06:06:31;2.10;;;1.20;;
78985;SDS011;68384;55.750;48.746;2023-05-10T06:07:35;2.10;;;1.30;;
78985;SDS011;68384;55.750;48.746;2023-05-10T06:08:38;2.20;;;1.17;;
78985;SDS011;68384;55.750;48.746;2023-05-10T06:09:41;3.47;;;1.30;;
78985;SDS011;68384;55.750;48.746;2023-05-10T06:10:44;2.17;;;1.50;;
78985;SDS011;68384;55.750;48.746;2023-05-10T06:11:49;2.00;;;1.17;;
78985;SDS011;68384;55.750;48.746;2023-05-10T06:12:52;1.90;;;1.40;;
78985;SDS011;68384;55.750;48.746;2023-05-10T06:13:56;2.88;;;1.30;;
78985;SDS011;68384;55.750;48.746;2023-05-10T06:14:59;2.40;;;1.20;;
78985;SDS011;68384;55.750;48.746;2023-05-10T06:16:05;3.63;;;1.60;;
78985;SDS011;68384;55.750;48.746;2023-05-10T06:17:08;1.88;;;1.30;;
78985;SDS011;68384;55.750;48.746;2023-05-10T06:18:12;2.25;;;1.52;;
78985;SDS011;68384;55.750;48.746;2023-05-10T06:19:15;2.20;;;1.25;;
78985;SDS011;68384;55.750;48.746;2023-05-10T06:20:19;2.25;;;1.50;;
78985;SDS011;68384;55.750;48.746;2023-05-10T06:21:22;2.35;;;1.45;;
78985;SDS011;68384;55.750;48.746;2023-05-10T06:22:26;2.30;;;1.50;;
78985;SDS011;68384;55.750;48.746;2023-05-10T06:23:29;3.83;;;1.35;;
78985;SDS011;68384;55.750;48.746;2023-05-10T06:24:32;2.38;;;1.30;;
78985;SDS011;68384;55.750;48.746;2023-05-10T06:25:36;2.33;;;1.50;;
78985;SDS011;68384;55.750;48.746;2023-05-10T06:26:40;2.72;;;1.40;;
78985;SDS011;68384;55.750;48.746;2023-05-10T06:27:45;2.03;;;1.27;;
78985;SDS011;68384;55.750;48.746;2023-05-10T06:28:54;4.10;;;1.83;;
78985;SDS011;68384;55.750;48.746;2023-05-10T06:29:58;6.60;;;1.85;;
78985;SDS011;68384;55.750;48.746;2023-05-10T06:31:13;5.90;;;1.95;;
78985;SDS011;68384;55.750;48.746;2023-05-10T06:32:18;2.92;;;1.20;;
78985;SDS011;68384;55.750;48.746;2023-05-10T06:33:20;2.78;;;1.50;;
78985;SDS011;68384;55.750;48.746;2023-05-10T06:34:24;2.35;;;1.42;;
78985;SDS011;68384;55.750;48.746;2023-05-10T06:35:27;2.20;;;1.40;;
78985;SDS011;68384;55.750;48.746;2023-05-10T06:36:31;2.28;;;1.60;;
78985;SDS011;68384;55.750;48.746;2023-05-10T06:37:34;3.55;;;1.50;;
78985;SDS011;68384;55.750;48.746;2023-05-10T06:38:38;2.47;;;1.38;;
78985;SDS011;68384;55.750;48.746;2023-05-10T06:39:41;2.80;;;1.60;;
78985;SDS011;68384;55.750;48.746;2023-05-10T06:40:45;3.88;;;1.60;;
78985;SDS011;68384;55.750;48.746;2023-05-10T06:41:47;4.63;;;1.60;;
78985;SDS011;68384;55.750;48.746;2023-05-10T06:42:55;2.72;;;1.35;;